Time;durP1;ratioP1;P1;durP2;ratioP2;P2;SDS_P1;SDS_P2;PMS_P1;PMS_P2;Temp;Humidity;BMP_temperature;BMP_pressure;BME280_temperature;BME280_humidity;BME280_pressure;Samples;Min_cycle;Max_cycle;Signal;HPM_P1;HPM_P2
2022/04/01 00:01:40;;;;;;;10.85;5.55;;;;;;;2.05;47.09;99874.28;5027909;28;20034;-55
2022/04/01 00:04:06;;;;;;;10.80;6.30;;;;;;;2.03;46.92;99866.50;5033751;28;20040;-55
2022/04/01 00:06:31;;;;;;;10.00;6.15;;;;;;;2.07;46.71;99873.44;5016637;28;20034;-55
2022/04/01 00:08:56;;;;;;;14.52;5.60;;;;;;;2.05;46.49;99864.78;5035021;28;20474;-55
2022/04/01 00:11:22;;;;;;;6.47;3.08;;;;;;;2.03;46.55;99868.22;5022585;28;20083;-54
2022/04/01 00:13:47;;;;;;;6.50;3.63;;;;;;;2.02;46.56;99872.53;5028018;28;20048;-56
2022/04/01 00:16:15;;;;;;;6.32;4.25;;;;;;;1.98;46.36;99866.47;5018003;28;20358;-56
2022/04/01 00:18:40;;;;;;;8.45;4.32;;;;;;;1.95;46.32;99868.19;5015789;28;20176;-55
2022/04/01 00:21:06;;;;;;;9.18;3.95;;;;;;;1.98;46.08;99878.56;5034821;28;20516;-56
2022/04/01 00:23:31;;;;;;;7.70;3.20;;;;;;;1.98;45.79;99863.03;5023956;28;20053;-55
2022/04/01 00:25:56;;;;;;;5.32;3.17;;;;;;;2.04;45.64;99873.44;5014909;28;20033;-55
2022/04/01 00:28:22;;;;;;;5.45;2.90;;;;;;;1.97;45.43;99871.66;5014972;28;20069;-54
2022/04/01 00:30:47;;;;;;;7.25;3.70;;;;;;;1.91;45.01;99867.28;5016552;28;20022;-56
2022/04/01 00:33:14;;;;;;;7.40;3.17;;;;;;;1.98;44.34;99874.25;5024184;28;20052;-54
2022/04/01 00:35:40;;;;;;;5.15;2.95;;;;;;;1.94;44.25;99869.91;5034156;28;20465;-55
2022/04/01 00:38:05;;;;;;;6.55;3.05;;;;;;;1.96;44.48;99869.94;5029592;28;20057;-55
2022/04/01 00:40:31;;;;;;;6.47;3.35;;;;;;;1.92;44.27;99873.38;5014696;28;20041;-55
2022/04/01 00:42:56;;;;;;;8.60;3.35;;;;;;;1.78;43.45;99875.88;5017498;28;20192;-53
2022/04/01 00:45:21;;;;;;;7.35;3.03;;;;;;;1.90;44.05;99872.47;5033549;28;20038;-52
2022/04/01 00:47:47;;;;;;;5.82;2.80;;;;;;;1.87;44.12;99869.88;5033204;28;20116;-56
2022/04/01 00:50:12;;;;;;;6.53;2.75;;;;;;;1.91;43.61;99858.66;5014851;28;20060;-52
2022/04/01 00:52:38;;;;;;;4.93;2.40;;;;;;;1.88;43.64;99872.50;5016493;28;20478;-51
2022/04/01 00:55:05;;;;;;;6.22;2.47;;;;;;;1.87;43.76;99872.47;5015117;28;20113;-56
2022/04/01 00:57:31;;;;;;;5.75;3.00;;;;;;;1.91;43.14;99874.22;5022456;28;20026;-55
2022/04/01 00:59:57;;;;;;;5.95;2.63;;;;;;;1.91;43.11;99874.22;5021018;28;20041;-55
2022/04/01 01:02:23;;;;;;;5.10;2.25;;;;;;;1.91;43.27;99874.22;5033977;28;20068;-54
2022/04/01 01:04:49;;;;;;;6.75;2.38;;;;;;;1.94;42.87;99866.47;5024691;28;20053;-53
2022/04/01 01:07:14;;;;;;;8.30;2.42;;;;;;;1.94;43.23;99867.31;5014336;28;20037;-53
2022/04/01 01:09:43;;;;;;;5.25;2.20;;;;;;;1.90;42.68;99870.75;5021500;28;20462;-56
2022/04/01 01:12:08;;;;;;;6.53;2.92;;;;;;;1.90;42.86;99867.31;5030145;28;20477;-55
2022/04/01 01:14:36;;;;;;;4.88;2.60;;;;;;;1.89;42.78;99866.44;5033980;28;20033;-56
2022/04/01 01:17:05;;;;;;;4.13;1.88;;;;;;;1.92;42.68;99863.00;5013788;28;20045;-54
2022/04/01 01:19:32;;;;;;;4.80;2.42;;;;;;;1.89;42.72;99870.75;5014079;28;20455;-55
2022/04/01 01:21:58;;;;;;;4.25;2.03;;;;;;;1.87;43.01;99855.19;5026157;28;20033;-54
2022/04/01 01:24:35;;;;;;;6.60;2.25;;;;;;;1.84;42.24;99865.56;5032925;28;20033;-55
2022/04/01 01:27:01;;;;;;;4.47;2.17;;;;;;;1.79;42.47;99856.00;5032113;28;20025;-52
2022/04/01 01:29:29;;;;;;;4.30;2.35;;;;;;;1.71;42.86;99853.38;5013766;28;20034;-55
2022/04/01 01:31:59;;;;;;;6.07;2.60;;;;;;;1.78;42.61;99857.75;5015203;28;20033;-53
2022/04/01 01:34:25;;;;;;;3.80;2.03;;;;;;;1.76;42.18;99862.06;5025563;28;20040;-52
2022/04/01 01:36:51;;;;;;;4.57;2.22;;;;;;;1.60;41.18;99850.75;5032965;28;20072;-54
2022/04/01 01:39:18;;;;;;;4.55;2.40;;;;;;;1.69;42.31;99860.28;5030800;28;20091;-56
2022/04/01 01:41:45;;;;;;;4.20;2.22;;;;;;;1.68;42.35;99854.25;5014864;28;20032;-54
2022/04/01 01:44:12;;;;;;;5.75;2.38;;;;;;;1.63;42.27;99849.88;5014537;28;20038;-53
2022/04/01 01:46:37;;;;;;;5.85;2.47;;;;;;;1.67;42.00;99855.06;5032309;28;20142;-56
2022/04/01 01:49:03;;;;;;;4.93;2.60;;;;;;;1.55;41.72;99847.22;5032925;28;20465;-54
2022/04/01 01:56:56;;;;;;;4.78;1.92;;;;;;;1.56;41.96;99853.31;5030841;28;20041;-57
2022/04/01 01:59:22;;;;;;;5.40;2.60;;;;;;;1.50;41.63;99858.44;5031934;28;20393;-53
2022/04/01 02:01:47;;;;;;;5.05;2.42;;;;;;;1.52;41.62;99854.13;5023990;28;20050;-55
2022/04/01 02:04:13;;;;;;;7.38;2.25;;;;;;;1.54;41.38;99853.28;5023559;28;20128;-56
2022/04/01 02:06:39;;;;;;;3.72;2.17;;;;;;;1.57;41.18;99845.53;5032509;28;20038;-55
2022/04/01 02:09:05;;;;;;;8.02;3.00;;;;;;;1.41;40.47;99851.47;5032820;28;20030;-54
2022/04/01 02:11:30;;;;;;;5.15;2.33;;;;;;;1.40;40.88;99845.44;5032158;28;20040;-54
2022/04/01 02:13:56;;;;;;;5.97;2.83;;;;;;;1.37;40.88;99844.53;5031591;28;20381;-55
2022/04/01 02:16:22;;;;;;;4.22;2.33;;;;;;;1.41;40.56;99838.53;5026785;28;20124;-56
2022/04/01 02:18:49;;;;;;;6.05;2.88;;;;;;;1.36;40.17;99846.28;5032891;28;20117;-54
2022/04/01 02:21:15;;;;;;;6.90;3.00;;;;;;;1.36;39.78;99850.59;5027695;28;20358;-56
2022/04/01 02:23:49;;;;;;;5.75;2.72;;;;;;;1.26;39.13;99848.78;5029818;28;20143;-53
2022/04/01 02:26:16;;;;;;;5.15;2.05;;;;;;;1.39;40.42;99853.16;5032626;28;20029;-53
2022/04/01 02:28:42;;;;;;;4.70;2.47;;;;;;;1.34;40.58;99847.97;5034933;28;20034;-55
2022/04/01 02:31:08;;;;;;;7.30;2.45;;;;;;;1.29;39.77;99848.81;5020166;28;20084;-56
2022/04/01 02:33:35;;;;;;;5.60;2.40;;;;;;;1.30;40.28;99845.34;5030437;28;20546;-52
2022/04/01 02:36:02;;;;;;;3.97;2.17;;;;;;;1.35;40.09;99848.81;5036838;28;20465;-56
2022/04/01 02:38:29;;;;;;;4.78;2.58;;;;;;;1.28;39.41;99847.03;5032066;28;20052;-56
2022/04/01 02:40:57;;;;;;;5.22;2.35;;;;;;;1.22;38.90;99843.56;5028137;28;20044;-55
2022/04/01 02:43:24;;;;;;;4.75;2.40;;;;;;;1.19;39.47;99848.72;5020236;28;20061;-54
2022/04/01 02:45:50;;;;;;;4.72;2.50;;;;;;;1.28;39.33;99845.34;5036662;28;20116;-54
2022/04/01 02:48:18;;;;;;;6.45;2.72;;;;;;;1.31;39.54;99849.66;5036709;28;20064;-55
2022/04/01 02:50:45;;;;;;;5.88;3.00;;;;;;;1.32;39.59;99854.88;5020896;28;20056;-54
2022/04/01 02:53:11;;;;;;;5.88;2.70;;;;;;;1.26;39.14;99851.34;5036320;28;20044;-54
2022/04/01 02:55:38;;;;;;;4.75;2.40;;;;;;;1.21;38.73;99847.00;5025308;28;20033;-55
2022/04/01 02:58:08;;;;;;;5.22;2.53;;;;;;;1.22;39.43;99846.16;5033582;28;20083;-56
2022/04/01 03:00:35;;;;;;;4.47;2.80;;;;;;;1.24;39.15;99843.59;5030518;28;20430;-56
2022/04/01 03:03:06;;;;;;;4.95;2.80;;;;;;;1.26;38.89;99839.28;5016393;28;20069;-55
2022/04/01 03:05:38;;;;;;;8.45;4.57;;;;;;;1.22;38.96;99850.47;5029814;28;20079;-54
2022/04/01 03:08:09;;;;;;;9.50;4.13;;;;;;;1.09;38.27;99846.91;5032377;28;20030;-56
2022/04/01 03:10:36;;;;;;;30.98;11.40;;;;;;;1.15;38.76;99846.94;5022428;28;20076;-53
2022/04/01 03:13:03;;;;;;;26.63;10.77;;;;;;;1.15;39.03;99852.13;5017149;28;20042;-53
2022/04/01 03:15:29;;;;;;;10.88;4.85;;;;;;;1.11;38.59;99850.38;5015432;28;20505;-55
2022/04/01 03:17:55;;;;;;;14.00;6.88;;;;;;;1.16;39.18;99851.28;5035539;28;20068;-53
2022/04/01 03:20:21;;;;;;;8.68;5.47;;;;;;;1.07;39.09;99847.75;5033055;28;20392;-52
2022/04/01 03:22:46;;;;;;;8.13;3.58;;;;;;;1.12;39.11;99846.09;5019894;28;20420;-57
2022/04/01 03:25:14;;;;;;;6.35;3.15;;;;;;;1.17;39.11;99850.44;5034054;28;20044;-55
2022/04/01 03:27:40;;;;;;;5.00;2.45;;;;;;;1.13;39.33;99843.50;5033044;28;20064;-56
2022/04/01 03:30:10;;;;;;;7.00;2.90;;;;;;;1.08;39.31;99852.97;5016247;28;20406;-54
2022/04/01 03:32:39;;;;;;;5.65;2.83;;;;;;;1.07;39.10;99851.19;5033063;28;20143;-55
2022/04/01 03:35:08;;;;;;;4.68;2.47;;;;;;;1.07;39.40;99856.38;5034058;28;20038;-55
2022/04/01 03:37:34;;;;;;;6.55;2.80;;;;;;;1.02;39.19;99850.31;5035189;28;20038;-56
2022/04/01 03:40:00;;;;;;;5.07;2.90;;;;;;;1.11;38.97;99862.44;5021644;28;20091;-55
2022/04/01 03:42:30;;;;;;;6.45;2.72;;;;;;;1.08;38.66;99847.78;5015569;28;20033;-56
2022/04/01 03:44:56;;;;;;;7.57;3.53;;;;;;;1.00;39.17;99841.69;5027580;28;20042;-55
2022/04/01 03:47:26;;;;;;;7.40;3.17;;;;;;;1.12;39.00;99854.72;5035524;28;20029;-57
2022/04/01 03:49:58;;;;;;;6.80;3.65;;;;;;;1.11;39.19;99850.38;5027432;28;20064;-57
2022/04/01 03:52:25;;;;;;;7.80;5.55;;;;;;;1.02;39.09;99845.13;5026043;28;20029;-54
2022/04/01 03:54:54;;;;;;;9.80;5.38;;;;;;;1.11;39.14;99839.16;5030180;28;20066;-58
2022/04/01 03:57:25;;;;;;;7.15;3.67;;;;;;;1.08;38.79;99846.88;5030590;28;20037;-59
2022/04/01 03:59:53;;;;;;;5.43;3.67;;;;;;;1.12;39.08;99846.09;5016372;28;20413;-55
2022/04/01 04:02:19;;;;;;;6.18;3.22;;;;;;;1.12;39.39;99843.50;5021439;28;20025;-55
2022/04/01 04:04:46;;;;;;;10.65;3.63;;;;;;;1.08;39.55;99844.31;5034835;28;20385;-57
2022/04/01 04:07:11;;;;;;;6.10;3.13;;;;;;;1.04;39.73;99848.63;5034184;28;20172;-57
2022/04/01 04:09:40;;;;;;;4.75;2.78;;;;;;;1.05;39.53;99849.47;5034080;28;20128;-57
2022/04/01 04:12:07;;;;;;;5.35;3.05;;;;;;;1.11;39.77;99850.38;5023633;28;20042;-57
2022/04/01 04:14:33;;;;;;;5.28;2.92;;;;;;;1.13;40.04;99843.50;5021848;28;20490;-58
2022/04/01 04:17:10;;;;;;;5.22;3.50;;;;;;;1.11;39.95;99849.50;5034508;28;20121;-57
2022/04/01 04:19:43;;;;;;;7.00;3.50;;;;;;;1.20;39.90;99845.28;5034562;28;20045;-58
2022/04/01 04:22:12;;;;;;;6.68;3.60;;;;;;;1.12;40.42;99844.38;5034788;28;20116;-57
2022/04/01 04:25:00;;;;;;;9.63;4.43;;;;;;;1.17;40.10;99841.81;5033223;28;20143;-56
2022/04/01 04:27:28;;;;;;;7.07;3.92;;;;;;;1.15;40.56;99844.38;5034225;28;20025;-57
2022/04/01 04:30:08;;;;;;;4.93;3.80;;;;;;;1.08;40.64;99846.88;5033047;28;20033;-58
2022/04/01 04:32:49;;;;;;;8.63;3.97;;;;;;;1.11;40.49;99845.19;5031263;28;20041;-55
2022/04/01 04:35:20;;;;;;;7.22;4.25;;;;;;;1.16;40.51;99843.53;5022402;28;20033;-58
2022/04/01 04:37:46;;;;;;;11.45;5.13;;;;;;;1.09;40.81;99848.66;5029548;28;20060;-55
2022/04/01 04:40:15;;;;;;;10.40;5.20;;;;;;;1.08;41.34;99850.38;5033538;28;20029;-58
2022/04/01 04:42:45;;;;;;;6.88;4.28;;;;;;;1.19;41.31;99853.03;5021183;28;20042;-56
2022/04/01 04:45:12;;;;;;;9.77;3.78;;;;;;;1.29;40.97;99856.56;5014899;28;20060;-57
2022/04/01 04:47:41;;;;;;;9.68;4.85;;;;;;;1.19;41.27;99853.88;5018452;28;20033;-54
2022/04/01 04:50:08;;;;;;;8.13;4.18;;;;;;;1.25;41.12;99868.63;5026611;28;20033;-56
2022/04/01 04:52:34;;;;;;;8.52;5.13;;;;;;;1.29;41.05;99861.75;5022139;28;20040;-55
2022/04/01 04:55:02;;;;;;;6.57;3.60;;;;;;;1.37;41.17;99862.66;5014365;28;20042;-58
2022/04/01 04:57:28;;;;;;;6.32;3.50;;;;;;;1.42;41.15;99866.16;5018046;28;20079;-59
2022/04/01 04:59:57;;;;;;;7.13;4.00;;;;;;;1.44;40.97;99872.22;5021517;28;20038;-56
2022/04/01 05:02:52;;;;;;;7.05;3.60;;;;;;;1.41;40.96;99870.47;5023486;28;20025;-58
2022/04/01 05:05:26;;;;;;;6.05;4.07;;;;;;;1.46;40.86;99873.06;5033263;28;20036;-57
2022/04/01 05:08:08;;;;;;;10.98;4.45;;;;;;;1.53;40.54;99874.00;5023733;28;20080;-57
2022/04/01 05:10:45;;;;;;;7.72;5.05;;;;;;;1.63;40.39;99873.19;5014708;28;20449;-59
2022/04/01 05:13:10;;;;;;;9.98;6.03;;;;;;;1.71;40.68;99872.38;5033485;28;20394;-58
2022/04/01 05:15:37;;;;;;;12.65;5.45;;;;;;;1.69;40.04;99876.69;5028468;28;20042;-56
2022/04/01 05:18:09;;;;;;;8.55;5.97;;;;;;;1.84;39.99;99873.34;5013860;28;20095;-58
2022/04/01 05:20:45;;;;;;;9.48;6.25;;;;;;;1.92;39.88;99873.38;5020898;28;20037;-56
2022/04/01 05:23:25;;;;;;;8.93;6.13;;;;;;;1.98;39.56;99873.38;5015245;28;20037;-55
2022/04/01 05:26:02;;;;;;;10.85;5.90;;;;;;;1.95;39.30;99873.38;5030532;28;20033;-57
2022/04/01 05:28:36;;;;;;;16.38;8.02;;;;;;;2.10;39.42;99865.66;5012196;28;20398;-56
2022/04/01 05:31:30;;;;;;;14.73;6.85;;;;;;;2.13;39.10;99857.91;5012508;28;20065;-56
2022/04/01 05:33:58;;;;;;;11.15;6.00;;;;;;;2.22;39.11;99870.03;5019199;28;20052;-57
2022/04/01 05:36:24;;;;;;;10.25;5.30;;;;;;;2.29;38.94;99873.53;5013973;28;20108;-57
2022/04/01 05:38:50;;;;;;;10.85;5.18;;;;;;;2.26;38.70;99869.19;5011032;28;20128;-56
2022/04/01 05:41:20;;;;;;;11.85;4.30;;;;;;;2.31;38.53;99871.78;5017382;28;20038;-59
2022/04/01 05:43:47;;;;;;;9.23;4.43;;;;;;;2.48;38.56;99870.16;5033191;28;20048;-57
2022/04/01 05:46:17;;;;;;;11.70;5.88;;;;;;;2.58;38.59;99882.25;5033239;28;20033;-59
2022/04/01 05:48:43;;;;;;;13.25;5.15;;;;;;;2.54;37.98;99880.53;5021130;28;20065;-59
2022/04/01 05:51:13;;;;;;;11.60;4.32;;;;;;;2.58;37.95;99882.25;5037953;28;20045;-54
2022/04/01 05:53:39;;;;;;;15.43;5.82;;;;;;;2.72;37.77;99883.19;5053542;28;20037;-58
2022/04/01 05:56:07;;;;;;;15.55;6.10;;;;;;;2.85;38.03;99875.41;5038454;28;20041;-57
2022/04/01 05:58:33;;;;;;;13.13;6.10;;;;;;;2.86;37.61;99878.00;5037764;28;20036;-58
2022/04/01 06:01:21;;;;;;;11.23;8.23;;;;;;;2.92;37.24;99888.41;5039261;28;20025;-56
2022/04/01 06:04:26;;;;;;;17.02;8.32;;;;;;;3.05;36.98;99894.47;5036141;28;20054;-57
2022/04/01 06:07:08;;;;;;;15.75;8.25;;;;;;;3.04;36.41;99884.09;5025386;28;20037;-58
2022/04/01 06:09:52;;;;;;;23.02;10.80;;;;;;;3.18;36.53;99891.00;5037509;28;20057;-58
2022/04/01 06:12:26;;;;;;;23.27;13.40;;;;;;;3.38;36.88;99898.81;5035057;28;20042;-59
2022/04/01 06:15:13;;;;;;;15.77;9.52;;;;;;;3.47;35.98;99897.94;5017617;28;20049;-58
2022/04/01 06:17:39;;;;;;;15.35;8.20;;;;;;;3.58;35.73;99900.53;5028322;28;20033;-58
2022/04/01 06:20:07;;;;;;;13.05;5.93;;;;;;;3.65;36.12;99894.47;5027163;28;20041;-58
2022/04/01 06:22:42;;;;;;;10.43;5.25;;;;;;;3.85;35.92;99902.22;5033309;28;20038;-58
2022/04/01 06:25:15;;;;;;;8.45;3.80;;;;;;;3.77;35.74;99906.56;5034488;28;20112;-59
2022/04/01 06:27:51;;;;;;;;;;;;;;;3.87;34.94;99901.38;5019761;28;20038;-58
2022/04/01 06:30:19;;;;;;;12.35;4.60;;;;;;;3.97;35.28;99897.00;5019140;28;19918;-58
2022/04/01 06:33:09;;;;;;;12.45;5.03;;;;;;;3.97;34.58;99891.78;5017536;28;20053;-58
2022/04/01 06:35:59;;;;;;;8.68;4.55;;;;;;;4.14;34.78;99897.81;5036672;28;20033;-56
2022/04/01 06:38:54;;;;;;;10.98;4.90;;;;;;;4.12;34.45;99899.56;5035822;28;20107;-58
2022/04/01 06:41:24;;;;;;;13.18;5.15;;;;;;;4.09;34.73;99898.69;5035942;28;20041;-58
2022/04/01 06:43:50;;;;;;;9.48;4.97;;;;;;;4.25;34.73;99887.38;5036511;28;20472;-57
2022/04/01 06:46:15;;;;;;;10.35;5.72;;;;;;;4.23;34.20;99903.84;5036359;28;20038;-59
2022/04/01 06:48:41;;;;;;;9.88;5.25;;;;;;;4.35;33.73;99888.19;5036197;28;20491;-58
2022/04/01 06:51:09;;;;;;;6.75;3.30;;;;;;;4.45;33.55;99887.28;5036135;28;20035;-58
2022/04/01 06:53:36;;;;;;;9.25;2.78;;;;;;;4.45;32.85;99892.50;5036065;28;20124;-57
2022/04/01 06:56:03;;;;;;;10.35;4.25;;;;;;;4.69;32.99;99891.50;5036367;28;20032;-58
2022/04/01 06:58:30;;;;;;;11.07;5.65;;;;;;;4.69;32.56;99894.09;5036181;28;20037;-57
2022/04/01 07:00:56;;;;;;;16.27;4.95;;;;;;;4.67;32.18;99904.53;5036321;28;20030;-57
2022/04/01 07:03:21;;;;;;;13.10;5.07;;;;;;;4.82;32.40;99903.56;5035994;28;20083;-58
2022/04/01 07:05:47;;;;;;;16.15;5.35;;;;;;;4.86;32.63;99886.19;5034657;28;20552;-59
2022/04/01 07:08:12;;;;;;;11.35;3.90;;;;;;;4.86;31.34;99888.78;5035492;28;20059;-58
2022/04/01 07:10:39;;;;;;;11.93;4.30;;;;;;;5.00;31.80;99891.31;5035697;28;20408;-58
2022/04/01 07:13:04;;;;;;;10.88;3.10;;;;;;;5.08;32.01;99895.59;5035576;28;20486;-56
2022/04/01 07:15:30;;;;;;;5.90;2.50;;;;;;;5.12;31.75;99894.69;5027721;28;20100;-56
2022/04/01 07:17:56;;;;;;;5.10;2.03;;;;;;;5.19;31.65;99904.22;5034865;28;20041;-57
2022/04/01 07:20:21;;;;;;;9.88;2.90;;;;;;;5.30;31.50;99895.44;5035804;28;20389;-57
2022/04/01 07:22:48;;;;;;;13.05;3.03;;;;;;;5.41;31.25;99899.69;5025023;28;20045;-57
2022/04/01 07:25:13;;;;;;;6.38;3.00;;;;;;;5.39;31.03;99887.56;5030464;28;20041;-59
2022/04/01 07:27:39;;;;;;;11.25;2.85;;;;;;;5.32;30.75;99907.56;5030513;28;20029;-57
2022/04/01 07:30:08;;;;;;;8.27;2.35;;;;;;;5.37;31.00;99891.91;5026607;28;20037;-57
2022/04/01 07:32:35;;;;;;;5.95;2.33;;;;;;;5.54;31.31;99890.00;5028152;28;20033;-57
2022/04/01 07:35:03;;;;;;;5.65;3.00;;;;;;;5.76;31.04;99887.22;5035488;28;20362;-57
2022/04/01 07:37:29;;;;;;;7.32;2.65;;;;;;;5.74;30.65;99886.34;5030237;28;20029;-57
2022/04/01 07:39:59;;;;;;;11.20;2.50;;;;;;;5.52;30.06;99886.56;5034659;28;20036;-57
2022/04/01 07:42:29;;;;;;;13.65;2.80;;;;;;;5.46;29.92;99904.84;5035657;28;20112;-59
2022/04/01 07:44:55;;;;;;;10.55;2.75;;;;;;;5.39;30.12;99892.78;5035581;28;20033;-59
2022/04/01 07:47:22;;;;;;;8.02;2.13;;;;;;;5.54;29.92;99878.72;5035440;28;20041;-59
2022/04/01 07:49:51;;;;;;;7.63;1.70;;;;;;;5.56;29.73;99890.00;5035363;28;20587;-58
2022/04/01 07:52:19;;;;;;;6.47;1.67;;;;;;;5.53;29.98;99888.28;5035827;28;20171;-58
2022/04/01 07:54:47;;;;;;;37.42;3.33;;;;;;;5.54;29.50;99892.59;5034087;28;20025;-59
2022/04/01 07:57:13;;;;;;;15.60;3.03;;;;;;;5.73;29.76;99895.06;5035344;28;20492;-59
2022/04/01 07:59:40;;;;;;;36.38;4.47;;;;;;;5.52;29.02;99896.13;5035242;28;20036;-58
2022/04/01 08:02:06;;;;;;;16.58;3.92;;;;;;;5.58;29.03;99896.06;5035311;28;20030;-59
2022/04/01 08:04:32;;;;;;;7.47;2.58;;;;;;;5.66;29.17;99884.72;5035158;28;20040;-59
2022/04/01 08:06:58;;;;;;;8.57;2.10;;;;;;;5.75;29.12;99914.16;5035424;28;20037;-58
2022/04/01 08:09:24;;;;;;;5.88;1.67;;;;;;;5.80;29.53;99899.34;5035186;28;20049;-59
2022/04/01 08:11:50;;;;;;;21.73;3.05;;;;;;;5.86;28.80;99894.03;5035310;28;20524;-59
2022/04/01 08:14:17;;;;;;;12.63;2.28;;;;;;;5.87;28.70;99899.25;5023890;28;20385;-57
2022/04/01 08:16:43;;;;;;;14.35;3.58;;;;;;;5.97;28.71;99889.63;5034300;28;20040;-59
2022/04/01 08:19:08;;;;;;;20.48;2.28;;;;;;;5.95;27.79;99896.63;5033676;28;20400;-58
2022/04/01 08:21:34;;;;;;;9.65;3.40;;;;;;;5.81;28.31;99901.91;5034965;28;20029;-58
2022/04/01 08:24:00;;;;;;;18.33;3.10;;;;;;;5.98;28.42;99903.53;5034577;28;20385;-59
2022/04/01 08:26:26;;;;;;;21.45;3.25;;;;;;;6.22;28.27;99907.59;5034491;28;20073;-57
2022/04/01 08:28:53;;;;;;;16.77;3.53;;;;;;;6.15;28.00;99886.81;5034289;28;20044;-60
2022/04/01 08:31:19;;;;;;;10.88;2.47;;;;;;;6.08;27.93;99898.19;5026332;28;20111;-59
2022/04/01 08:33:45;;;;;;;22.00;3.92;;;;;;;6.20;28.03;99914.59;5014452;28;20041;-57
2022/04/01 08:36:11;;;;;;;35.92;4.28;;;;;;;6.06;27.64;99889.50;5014561;28;20116;-57
2022/04/01 08:38:37;;;;;;;24.88;4.85;;;;;;;6.24;28.02;99900.63;5014274;28;20057;-58
2022/04/01 08:41:02;;;;;;;15.23;3.72;;;;;;;6.04;27.15;99911.28;5014827;28;20088;-56
2022/04/01 08:43:31;;;;;;;23.80;4.70;;;;;;;5.93;27.04;99903.56;5014623;28;20517;-59
2022/04/01 08:45:58;;;;;;;10.13;2.03;;;;;;;6.07;26.97;99895.63;5014367;28;20389;-57
2022/04/01 08:48:25;;;;;;;4.05;1.50;;;;;;;6.15;27.36;99888.56;5029831;28;20048;-58
2022/04/01 08:50:51;;;;;;;20.58;3.05;;;;;;;6.44;27.36;99889.97;5034142;28;20041;-59
2022/04/01 08:53:17;;;;;;;18.50;2.95;;;;;;;6.39;27.21;99892.63;5033712;28;20041;-59
2022/04/01 08:55:47;;;;;;;6.25;1.70;;;;;;;6.52;27.39;99896.81;5034033;28;20037;-58
2022/04/01 08:58:16;;;;;;;7.80;2.33;;;;;;;6.57;27.77;99887.16;5034010;28;20084;-58
2022/04/01 09:00:43;;;;;;;10.10;2.95;;;;;;;6.72;27.85;99887.84;5033937;28;20030;-57
2022/04/01 09:03:10;;;;;;;7.97;2.30;;;;;;;6.83;27.87;99884.22;5033966;28;20243;-58
2022/04/01 09:05:36;;;;;;;8.02;2.28;;;;;;;7.09;27.70;99885.56;5033966;28;20029;-58
2022/04/01 09:08:07;;;;;;;5.20;2.67;;;;;;;7.12;27.17;99881.16;5032573;28;20068;-57
2022/04/01 09:10:50;;;;;;;5.30;2.55;;;;;;;7.25;26.82;99880.97;5033934;28;20114;-58
2022/04/01 09:13:16;;;;;;;17.52;2.55;;;;;;;7.16;27.20;99880.22;5021695;28;20041;-58
2022/04/01 09:15:43;;;;;;;11.88;5.05;;;;;;;7.03;27.07;99876.06;5014253;28;20040;-59
2022/04/01 09:18:10;;;;;;;5.88;2.40;;;;;;;7.02;27.21;99890.03;5014063;28;20497;-57
2022/04/01 09:20:48;;;;;;;4.50;2.30;;;;;;;7.11;26.92;99889.03;5013959;28;20038;-58
2022/04/01 09:23:23;;;;;;;4.47;1.67;;;;;;;7.21;26.79;99898.44;5013789;28;20371;-56
2022/04/01 09:25:50;;;;;;;16.73;3.75;;;;;;;7.10;27.20;99929.97;5014113;28;20044;-59
2022/04/01 09:28:31;;;;;;;10.43;4.20;;;;;;;6.96;26.77;99892.72;5012605;28;20045;-60
2022/04/01 09:30:57;;;;;;;9.10;7.85;;;;;;;6.98;27.00;99882.25;5024385;28;20025;-58
2022/04/01 09:33:23;;;;;;;3.50;2.58;;;;;;;7.04;27.05;99888.25;5032376;28;20377;-58
2022/04/01 09:35:52;;;;;;;5.03;2.28;;;;;;;6.98;27.27;99877.00;5033504;28;20037;-56
2022/04/01 09:38:17;;;;;;;6.88;2.15;;;;;;;7.10;27.32;99872.50;5033311;28;20183;-57
2022/04/01 09:40:50;;;;;;;7.85;2.45;;;;;;;7.06;27.07;99891.72;5033705;28;20092;-57
2022/04/01 09:43:23;;;;;;;6.78;2.50;;;;;;;7.14;26.96;99868.94;5033833;28;20062;-57
2022/04/01 09:45:49;;;;;;;7.43;2.85;;;;;;;7.19;27.30;99891.53;5033353;28;20037;-57
2022/04/01 09:48:19;;;;;;;4.13;1.88;;;;;;;7.09;27.38;99873.34;5032008;28;20370;-59
2022/04/01 09:50:55;;;;;;;8.55;3.38;;;;;;;7.02;27.38;99860.41;5033464;28;20120;-57
2022/04/01 09:53:21;;;;;;;6.63;1.40;;;;;;;7.08;27.11;99889.94;5033350;28;20087;-57
2022/04/01 09:55:51;;;;;;;7.13;2.20;;;;;;;7.15;27.15;99875.88;5033478;28;20030;-56
2022/04/01 09:58:18;;;;;;;6.43;1.60;;;;;;;7.47;26.88;99856.19;5031998;28;20040;-57
2022/04/01 10:00:44;;;;;;;6.68;1.58;;;;;;;7.51;26.55;99855.25;5033152;28;20047;-59
2022/04/01 10:03:11;;;;;;;15.20;3.40;;;;;;;7.28;26.98;99868.72;5032865;28;20034;-58
2022/04/01 10:05:39;;;;;;;6.57;3.10;;;;;;;7.50;26.72;99871.84;5032095;28;20034;-58
2022/04/01 10:08:08;;;;;;;5.32;2.70;;;;;;;7.51;26.48;99855.25;5033152;28;20025;-57
2022/04/01 10:10:34;;;;;;;24.30;3.40;;;;;;;7.70;26.24;99850.56;5033187;28;20065;-58
2022/04/01 10:13:10;;;;;;;8.27;2.70;;;;;;;7.54;25.98;99888.31;5024443;28;20045;-59
2022/04/01 10:15:40;;;;;;;8.02;2.22;;;;;;;7.55;26.28;99870.00;5013203;28;20033;-57
2022/04/01 10:18:07;;;;;;;8.68;3.00;;;;;;;7.81;26.44;99856.44;5014709;28;20033;-57
2022/04/01 10:20:37;;;;;;;17.30;3.50;;;;;;;7.79;26.26;99867.84;5033061;28;20062;-57
2022/04/01 10:23:05;;;;;;;21.10;3.03;;;;;;;8.03;26.32;99846.44;5033099;28;20026;-57
2022/04/01 10:25:50;;;;;;;12.93;4.00;;;;;;;7.94;25.85;99850.97;5032988;28;20079;-58
2022/04/01 10:28:18;;;;;;;11.07;2.40;;;;;;;7.84;25.66;99863.38;5032624;28;20037;-56
2022/04/01 10:30:58;;;;;;;5.20;2.28;;;;;;;8.07;25.94;99857.72;5033062;28;20025;-57
2022/04/01 10:33:26;;;;;;;13.07;4.63;;;;;;;8.34;25.92;99848.44;5032930;28;20040;-58
2022/04/01 10:35:54;;;;;;;10.48;2.65;;;;;;;8.14;25.67;99860.19;5032763;28;20033;-56
2022/04/01 10:38:25;;;;;;;4.35;2.03;;;;;;;8.25;25.64;99840.75;5032796;28;20107;-57
2022/04/01 10:40:50;;;;;;;9.15;2.17;;;;;;;8.22;25.62;99840.81;5033096;28;20072;-58
2022/04/01 10:43:18;;;;;;;3.97;1.90;;;;;;;8.34;25.71;99840.59;5034892;28;20065;-57
2022/04/01 10:55:18;;;;;;;12.43;1.90;;;;;;;7.69;26.90;99840.97;5014933;28;20447;-58
2022/04/01 10:57:50;;;;;;;5.93;1.85;;;;;;;7.66;26.57;99830.59;5033936;28;20036;-56
2022/04/01 11:00:17;;;;;;;10.40;1.70;;;;;;;7.08;27.25;99858.56;5036372;28;20465;-55
2022/04/01 11:02:45;;;;;;;8.43;1.33;;;;;;;7.21;27.27;99838.34;5036309;28;20037;-58
2022/04/01 11:05:31;;;;;;;8.70;1.70;;;;;;;7.16;26.67;99840.16;5036082;28;20033;-58
2022/04/01 11:08:23;;;;;;;6.25;1.50;;;;;;;6.94;26.16;99839.63;5036654;28;20029;-59
2022/04/01 11:11:09;;;;;;;6.78;1.70;;;;;;;7.16;26.15;99793.13;5018583;28;20427;-58
2022/04/01 11:13:36;;;;;;;6.95;2.13;;;;;;;7.36;26.49;99827.63;5033398;28;20034;-59
2022/04/01 11:16:21;;;;;;;6.28;2.15;;;;;;;7.29;25.78;99854.75;5035858;28;20037;-57
2022/04/01 11:19:18;;;;;;;6.43;1.35;;;;;;;7.14;25.82;99853.25;5036149;28;20029;-57
2022/04/01 11:21:46;;;;;;;5.55;3.05;;;;;;;6.97;26.15;99838.72;5035721;28;20033;-57
2022/04/01 11:24:30;;;;;;;7.20;2.80;;;;;;;7.13;26.04;99843.69;5035634;28;20128;-58
2022/04/01 11:27:04;;;;;;;4.55;2.05;;;;;;;7.35;25.83;99836.38;5035852;28;20480;-57
2022/04/01 11:29:30;;;;;;;5.55;1.33;;;;;;;7.52;25.84;99856.97;5035700;28;20022;-54
2022/04/01 11:32:05;;;;;;;4.38;1.83;;;;;;;7.24;25.89;99847.88;5035773;28;20488;-58
2022/04/01 11:34:30;;;;;;;4.70;1.58;;;;;;;6.97;26.14;99842.19;5035507;28;20091;-58
2022/04/01 11:37:03;;;;;;;5.55;1.67;;;;;;;7.40;25.42;99841.50;5034047;28;20437;-56
2022/04/01 11:39:29;;;;;;;4.65;2.05;;;;;;;7.30;25.78;99829.47;5035612;28;20053;-55
2022/04/01 11:41:55;;;;;;;4.93;1.70;;;;;;;7.37;26.20;99844.16;5035542;28;20432;-57
2022/04/01 11:44:22;;;;;;;4.38;1.45;;;;;;;7.29;26.32;99835.59;5035336;28;20428;-58
2022/04/01 11:46:52;;;;;;;8.48;1.95;;;;;;;6.90;26.79;99856.22;5035087;28;20043;-55
2022/04/01 11:49:18;;;;;;;6.43;1.38;;;;;;;6.98;27.02;99838.72;5030178;28;20113;-57
2022/04/01 11:51:44;;;;;;;2.15;1.20;;;;;;;6.96;26.91;99858.75;5036800;28;20124;-55
2022/04/01 11:54:10;;;;;;;4.95;1.48;;;;;;;6.94;27.37;99847.47;5029337;28;20133;-59
2022/04/01 11:56:36;;;;;;;3.90;1.30;;;;;;;7.08;27.39;99852.50;5015245;28;20033;-54
2022/04/01 11:59:04;;;;;;;14.70;1.65;;;;;;;7.06;27.78;99839.47;5014166;28;20030;-58
2022/04/01 12:01:34;;;;;;;6.75;1.50;;;;;;;6.87;28.07;99832.78;5015317;28;20046;-58
2022/04/01 12:04:08;;;;;;;6.68;1.50;;;;;;;7.16;28.02;99830.56;5015324;28;20030;-58